Time;durP1;ratioP1;P1;durP2;ratioP2;P2;SDS_P1;SDS_P2;PMS_P1;PMS_P2;Temp;Humidity;BMP_temperature;BMP_pressure;BME280_temperature;BME280_humidity;BME280_pressure;Samples;Min_cycle;Max_cycle;Signal;HPM_P1;HPM_P2
2022/11/06 00:02:01;;;;;;;10.83;4.93;;;10.00;99.90;;;;;;4988369;28;20203;-75
2022/11/06 00:04:29;;;;;;;6.90;4.47;;;10.00;99.90;;;;;;4986580;28;20228;-75
2022/11/06 00:06:55;;;;;;;8.37;4.27;;;10.00;99.90;;;;;;4985236;28;20208;-75
2022/11/06 00:09:23;;;;;;;7.37;4.60;;;10.00;99.90;;;;;;4989095;28;20184;-75
2022/11/06 00:11:51;;;;;;;4.57;3.97;;;10.00;99.90;;;;;;4989499;28;20781;-75
2022/11/06 00:14:19;;;;;;;8.40;4.30;;;9.90;99.90;;;;;;4988202;28;20206;-75
2022/11/06 00:16:48;;;;;;;7.10;4.40;;;10.00;99.90;;;;;;4990781;28;20243;-75
2022/11/06 00:19:17;;;;;;;5.50;4.03;;;9.90;99.90;;;;;;4982831;28;20196;-75
2022/11/06 00:21:45;;;;;;;4.60;3.97;;;9.90;99.90;;;;;;4985543;28;20549;-75
2022/11/06 00:24:14;;;;;;;6.97;3.93;;;9.90;99.90;;;;;;4984500;28;20204;-75
2022/11/06 00:26:42;;;;;;;8.60;4.00;;;9.90;99.90;;;;;;4991193;28;20192;-75
2022/11/06 00:29:14;;;;;;;5.20;4.10;;;9.90;99.90;;;;;;4993312;28;20583;-75
2022/11/06 00:31:41;;;;;;;5.27;4.20;;;9.90;99.90;;;;;;5001429;28;20207;-75
2022/11/06 00:34:10;;;;;;;5.23;4.17;;;9.90;99.90;;;;;;4978413;28;20192;-75
2022/11/06 00:36:39;;;;;;;6.33;4.10;;;9.90;99.90;;;;;;4987199;28;20575;-75
2022/11/06 00:39:06;;;;;;;6.93;3.87;;;9.80;99.90;;;;;;4984725;28;20204;-75
2022/11/06 00:41:34;;;;;;;4.80;3.60;;;9.80;99.90;;;;;;4987414;28;20208;-75
2022/11/06 00:44:02;;;;;;;7.97;3.90;;;9.80;99.90;;;;;;4985284;28;20200;-75
2022/11/06 00:46:30;;;;;;;6.03;3.90;;;9.80;99.90;;;;;;4981897;28;20220;-75
2022/11/06 00:48:58;;;;;;;4.83;3.87;;;9.80;99.90;;;;;;4990376;28;20200;-75
2022/11/06 00:51:28;;;;;;;5.40;4.10;;;9.80;99.90;;;;;;4987859;28;20207;-75
2022/11/06 00:54:01;;;;;;;7.67;3.63;;;9.80;99.90;;;;;;5000702;28;20211;-75
2022/11/06 00:56:28;;;;;;;4.43;3.50;;;9.80;99.90;;;;;;4987874;28;20220;-75
2022/11/06 00:58:58;;;;;;;7.17;3.67;;;9.70;99.90;;;;;;5001076;28;20660;-75
2022/11/06 01:01:27;;;;;;;5.23;3.60;;;9.70;99.90;;;;;;4994417;28;20686;-75
2022/11/06 01:03:58;;;;;;;5.70;3.93;;;9.80;99.90;;;;;;5001290;28;20196;-75
2022/11/06 01:06:27;;;;;;;6.23;3.60;;;9.70;99.90;;;;;;4989359;28;20308;-75
2022/11/06 01:08:57;;;;;;;6.53;3.70;;;9.80;99.90;;;;;;4996926;28;20200;-75
2022/11/06 01:11:27;;;;;;;4.60;3.20;;;9.70;99.90;;;;;;5000293;28;20196;-75
2022/11/06 01:13:58;;;;;;;4.60;3.30;;;9.70;99.90;;;;;;4983392;28;20201;-75
2022/11/06 01:16:26;;;;;;;6.97;3.40;;;9.70;99.90;;;;;;5011504;28;20224;-75
2022/11/06 01:18:55;;;;;;;9.87;3.37;;;9.70;99.90;;;;;;5005797;28;20200;-74
2022/11/06 01:21:24;;;;;;;3.30;3.00;;;9.70;99.90;;;;;;4991139;28;20677;-75
2022/11/06 01:23:53;;;;;;;4.93;3.37;;;9.70;99.90;;;;;;4997946;28;20209;-75
2022/11/06 01:26:23;;;;;;;3.23;2.93;;;9.60;99.90;;;;;;4996071;28;20220;-75
2022/11/06 01:28:50;;;;;;;4.43;3.20;;;9.70;99.90;;;;;;4994400;28;20204;-75
2022/11/06 01:31:20;;;;;;;4.83;2.87;;;9.60;99.90;;;;;;4993012;28;20205;-75
2022/11/06 01:33:48;;;;;;;6.93;3.27;;;9.70;99.90;;;;;;5003896;28;20216;-75
2022/11/06 01:36:18;;;;;;;6.53;3.30;;;9.70;99.90;;;;;;4992504;28;20212;-75
2022/11/06 01:38:47;;;;;;;3.97;3.03;;;9.70;99.90;;;;;;4992311;28;20200;-75
2022/11/06 01:41:16;;;;;;;4.83;2.60;;;9.70;99.90;;;;;;4989689;28;20211;-75
2022/11/06 01:43:47;;;;;;;5.37;3.30;;;9.70;99.90;;;;;;4994766;28;20200;-75
2022/11/06 01:46:15;;;;;;;5.33;3.03;;;9.70;99.90;;;;;;4993149;28;20271;-75
2022/11/06 01:48:46;;;;;;;3.83;2.60;;;9.70;99.90;;;;;;4990314;28;20204;-74
2022/11/06 01:51:14;;;;;;;3.30;2.90;;;9.70;99.90;;;;;;5003663;28;20200;-75
2022/11/06 01:53:42;;;;;;;6.93;2.60;;;9.70;99.90;;;;;;4993696;28;20567;-74
2022/11/06 01:56:12;;;;;;;4.03;2.23;;;9.70;99.90;;;;;;4989157;28;20602;-74
2022/11/06 01:58:43;;;;;;;4.57;2.90;;;9.70;99.90;;;;;;4994141;28;20715;-74
2022/11/06 02:01:15;;;;;;;7.80;2.60;;;9.70;99.90;;;;;;4991001;28;20188;-74
2022/11/06 02:03:59;;;;;;;5.40;2.27;;;9.70;99.90;;;;;;4999548;28;20215;-74
2022/11/06 02:06:27;;;;;;;6.40;2.80;;;9.70;99.90;;;;;;4991607;28;20220;-74
2022/11/06 02:08:55;;;;;;;4.80;2.83;;;9.70;99.90;;;;;;4995935;28;20658;-74
2022/11/06 02:11:22;;;;;;;6.87;3.03;;;9.60;99.90;;;;;;4992138;28;20204;-74
2022/11/06 02:14:00;;;;;;;7.83;2.77;;;9.70;99.90;;;;;;4990885;28;20227;-74
2022/11/06 02:16:37;;;;;;;4.33;2.37;;;9.60;99.90;;;;;;4988463;28;20223;-74
2022/11/06 02:19:29;;;;;;;3.67;2.70;;;9.60;99.90;;;;;;4989474;28;20204;-74
2022/11/06 02:22:17;;;;;;;3.23;2.30;;;9.60;99.90;;;;;;4995879;28;20199;-75
2022/11/06 02:25:07;;;;;;;6.27;2.80;;;9.60;99.90;;;;;;5004650;28;20224;-75
2022/11/06 02:27:51;;;;;;;9.77;3.07;;;9.60;99.90;;;;;;4982568;28;20202;-75
2022/11/06 02:30:19;;;;;;;3.57;2.50;;;9.60;99.90;;;;;;4994058;28;20205;-75
2022/11/06 02:32:53;;;;;;;4.23;2.57;;;9.60;99.90;;;;;;4990817;28;20196;-74
2022/11/06 02:35:24;;;;;;;4.67;2.60;;;9.60;99.90;;;;;;4987302;28;20238;-75
2022/11/06 02:37:55;;;;;;;4.80;2.83;;;9.60;99.90;;;;;;4984908;28;20239;-75
2022/11/06 02:40:28;;;;;;;4.20;2.57;;;9.50;99.90;;;;;;4989654;28;20708;-74
2022/11/06 02:42:59;;;;;;;6.97;2.90;;;9.50;99.90;;;;;;4996816;28;20199;-75
2022/11/06 02:45:29;;;;;;;5.57;2.53;;;9.50;99.90;;;;;;4984841;28;20228;-75
2022/11/06 02:47:58;;;;;;;3.43;2.33;;;9.50;99.90;;;;;;4999867;28;20199;-74
2022/11/06 02:50:31;;;;;;;4.40;2.20;;;9.50;99.90;;;;;;4997216;28;20201;-75
2022/11/06 02:53:02;;;;;;;3.53;2.20;;;9.50;99.90;;;;;;5001690;28;20201;-75
2022/11/06 02:55:34;;;;;;;3.37;2.63;;;9.50;99.90;;;;;;4992723;28;20213;-75
2022/11/06 02:58:08;;;;;;;4.77;2.00;;;9.50;99.90;;;;;;4985466;28;20224;-74
2022/11/06 03:00:37;;;;;;;3.60;2.07;;;9.50;99.90;;;;;;4984930;28;20670;-75
2022/11/06 03:03:09;;;;;;;5.53;2.30;;;9.50;99.90;;;;;;4988013;28;20566;-74
2022/11/06 03:05:40;;;;;;;6.33;2.47;;;9.50;99.90;;;;;;4986802;28;20220;-74
2022/11/06 03:08:13;;;;;;;3.93;2.47;;;9.50;99.90;;;;;;4987688;28;20193;-75
2022/11/06 03:10:47;;;;;;;3.80;2.20;;;9.50;99.90;;;;;;4985144;28;20200;-74
2022/11/06 03:13:19;;;;;;;3.77;2.33;;;9.50;99.90;;;;;;4989623;28;20207;-75
2022/11/06 03:15:52;;;;;;;4.77;2.43;;;9.50;99.90;;;;;;4988943;28;20607;-74
2022/11/06 03:18:30;;;;;;;4.10;2.70;;;9.50;99.90;;;;;;4997529;28;20234;-74
2022/11/06 03:21:01;;;;;;;4.17;2.27;;;9.50;99.90;;;;;;4989119;28;20195;-74
2022/11/06 03:23:35;;;;;;;4.10;2.37;;;9.50;99.90;;;;;;4990022;28;20208;-75
2022/11/06 03:26:14;;;;;;;3.00;2.00;;;9.50;99.90;;;;;;4986062;28;20231;-75
2022/11/06 03:28:51;;;;;;;3.80;2.30;;;9.50;99.90;;;;;;4994527;28;20188;-74
2022/11/06 03:31:25;;;;;;;4.83;2.37;;;9.50;99.90;;;;;;4994562;28;20564;-75
2022/11/06 03:33:56;;;;;;;5.30;2.47;;;9.50;99.90;;;;;;5000309;28;20198;-74
2022/11/06 03:36:26;;;;;;;4.77;2.77;;;9.50;99.90;;;;;;4994778;28;20220;-75
2022/11/06 03:38:59;;;;;;;5.13;2.63;;;9.50;99.90;;;;;;4996863;28;20208;-74
2022/11/06 03:41:32;;;;;;;4.43;1.90;;;9.40;99.90;;;;;;4989699;28;20211;-74
2022/11/06 03:44:02;;;;;;;4.40;2.03;;;9.50;99.90;;;;;;4986976;28;20203;-74
2022/11/06 03:46:31;;;;;;;3.40;1.83;;;9.50;99.90;;;;;;4993055;28;20686;-75
2022/11/06 03:49:02;;;;;;;5.17;2.13;;;9.50;99.90;;;;;;4993898;28;20193;-74
2022/11/06 03:51:38;;;;;;;4.13;2.10;;;9.50;99.90;;;;;;4988442;28;20196;-75
2022/11/06 03:54:11;;;;;;;3.70;2.03;;;9.50;99.90;;;;;;4992056;28;20203;-74
2022/11/06 03:56:43;;;;;;;4.17;2.17;;;9.50;99.90;;;;;;4986355;28;20200;-74
2022/11/06 03:59:21;;;;;;;4.23;1.93;;;9.50;99.90;;;;;;4988337;28;20209;-74
2022/11/06 04:01:50;;;;;;;5.07;2.30;;;9.50;99.90;;;;;;5002506;28;20208;-75
2022/11/06 04:04:23;;;;;;;4.77;2.20;;;9.50;99.90;;;;;;4992558;28;20212;-75
2022/11/06 04:06:56;;;;;;;5.43;1.97;;;9.50;99.90;;;;;;4990681;28;20203;-75
2022/11/06 04:15:15;;;;;;;3.00;1.90;;;9.60;99.90;;;;;;4989116;28;20715;-75
2022/11/06 04:17:42;;;;;;;7.17;2.83;;;9.60;99.90;;;;;;4994197;28;20223;-75
2022/11/06 04:21:20;;;;;;;3.57;2.00;;;9.60;99.90;;;;;;5036928;23;20216;-78
2022/11/06 04:23:12;;;;;;;4.20;1.93;;;9.60;99.90;;;;;;5027161;28;20210;-77
2022/11/06 04:28:44;;;;;;;3.87;2.00;;;9.50;99.90;;;;;;5028926;28;20222;-78
2022/11/06 04:31:22;;;;;;;3.23;2.00;;;9.50;99.90;;;;;;5039347;28;20201;-77
2022/11/06 04:33:57;;;;;;;9.97;2.00;;;9.50;99.90;;;;;;5025529;28;20644;-77
2022/11/06 04:36:37;;;;;;;8.20;2.07;;;9.50;99.90;;;;;;5034232;28;20207;-80
2022/11/06 04:39:13;;;;;;;2.83;1.83;;;9.50;99.90;;;;;;5039755;28;20223;-77
2022/11/06 04:41:45;;;;;;;2.53;1.90;;;9.50;99.90;;;;;;5030419;28;20206;-77
2022/11/06 04:44:19;;;;;;;2.17;1.97;;;9.50;99.90;;;;;;5030978;28;20199;-77
2022/11/06 04:46:53;;;;;;;4.23;2.20;;;9.50;99.90;;;;;;5029118;28;20199;-78
2022/11/06 04:49:21;;;;;;;5.27;1.97;;;9.50;99.90;;;;;;5030455;28;20223;-79
2022/11/06 04:51:49;;;;;;;5.67;2.13;;;9.50;99.90;;;;;;5031471;28;20203;-78
2022/11/06 04:54:17;;;;;;;2.83;1.63;;;9.50;99.90;;;;;;5030821;28;20209;-78
2022/11/06 04:56:44;;;;;;;4.87;2.20;;;9.50;99.90;;;;;;5031068;28;20573;-77
2022/11/06 04:59:15;;;;;;;3.03;1.57;;;9.50;99.90;;;;;;5027860;28;20230;-77
2022/11/06 05:01:42;;;;;;;4.00;1.90;;;9.50;99.90;;;;;;5026595;28;20199;-77
2022/11/06 05:04:11;;;;;;;3.30;1.80;;;9.50;99.90;;;;;;5025226;28;20214;-78
2022/11/06 05:06:39;;;;;;;6.43;1.93;;;9.50;99.90;;;;;;5029242;28;20206;-77
2022/11/06 05:09:08;;;;;;;3.30;1.90;;;9.50;99.90;;;;;;5029212;28;20224;-78
2022/11/06 05:11:37;;;;;;;2.60;1.53;;;9.50;99.90;;;;;;5029930;28;20210;-77
2022/11/06 05:14:04;;;;;;;5.17;2.20;;;9.40;99.90;;;;;;5024096;28;20206;-78
2022/11/06 05:16:32;;;;;;;3.50;2.07;;;9.40;99.90;;;;;;5024843;28;20286;-77
2022/11/06 05:18:59;;;;;;;4.67;2.03;;;9.30;99.90;;;;;;5031265;28;20241;-77
2022/11/06 05:24:13;;;;;;;5.07;2.20;;;9.30;99.90;;;;;;5030176;28;20561;-78
2022/11/06 05:26:40;;;;;;;5.53;2.27;;;9.20;99.90;;;;;;5028253;28;20553;-77
2022/11/06 05:29:08;;;;;;;2.57;2.13;;;9.20;99.90;;;;;;5029113;28;20233;-77
2022/11/06 05:31:35;;;;;;;7.50;2.00;;;9.10;99.90;;;;;;5025344;28;20203;-77
2022/11/06 05:34:06;;;;;;;4.43;2.13;;;9.10;99.90;;;;;;5028789;28;20199;-77
2022/11/06 05:36:35;;;;;;;4.47;2.00;;;9.10;99.90;;;;;;5048877;28;20226;-78
2022/11/06 05:39:03;;;;;;;3.07;2.40;;;9.10;99.90;;;;;;5031568;28;20237;-77
2022/11/06 05:41:30;;;;;;;7.37;2.10;;;9.00;99.90;;;;;;5031891;28;20209;-77
2022/11/06 05:43:58;;;;;;;6.00;2.60;;;9.00;99.90;;;;;;5033220;28;20199;-77
2022/11/06 05:46:26;;;;;;;5.03;2.50;;;9.00;99.90;;;;;;5029768;28;20201;-77
2022/11/06 05:48:53;;;;;;;2.43;1.93;;;9.00;99.90;;;;;;5031148;28;20244;-77
2022/11/06 05:51:21;;;;;;;4.63;2.23;;;9.00;99.90;;;;;;5027818;28;20214;-80
2022/11/06 05:53:50;;;;;;;4.70;2.10;;;9.00;99.90;;;;;;5032844;28;20207;-77
2022/11/06 05:56:17;;;;;;;6.50;2.30;;;9.00;99.90;;;;;;5032191;28;20203;-77
2022/11/06 05:58:45;;;;;;;6.03;2.10;;;9.00;99.90;;;;;;5031457;28;20227;-77
2022/11/06 06:01:13;;;;;;;4.73;2.20;;;9.00;99.90;;;;;;5027695;28;20203;-81
2022/11/06 06:03:41;;;;;;;3.00;1.43;;;9.00;99.90;;;;;;5034412;28;20207;-81
2022/11/06 06:06:08;;;;;;;5.40;2.23;;;9.10;99.90;;;;;;5037425;28;20199;-81
2022/11/06 06:08:35;;;;;;;4.90;1.90;;;9.00;99.90;;;;;;5038471;28;20211;-81
2022/11/06 06:11:07;;;;;;;3.07;1.63;;;9.00;99.90;;;;;;5039681;28;20199;-81
2022/11/06 06:13:36;;;;;;;4.77;1.70;;;9.00;99.90;;;;;;5039137;28;20199;-81
2022/11/06 06:16:05;;;;;;;4.57;2.07;;;9.00;99.90;;;;;;5040201;28;20212;-81
2022/11/06 06:18:32;;;;;;;2.80;1.90;;;9.00;99.90;;;;;;5035381;28;20561;-81
2022/11/06 06:21:00;;;;;;;3.40;1.90;;;9.00;99.90;;;;;;5041367;28;20210;-81
2022/11/06 06:23:27;;;;;;;4.70;2.13;;;9.00;99.90;;;;;;5034972;28;20202;-82
2022/11/06 06:25:57;;;;;;;3.73;1.97;;;9.00;99.90;;;;;;5041560;28;20203;-81
2022/11/06 06:28:25;;;;;;;3.20;2.00;;;9.00;99.90;;;;;;5041123;28;20209;-81
2022/11/06 06:30:56;;;;;;;3.37;1.70;;;9.00;99.90;;;;;;5034206;28;20216;-82
2022/11/06 06:33:26;;;;;;;6.67;1.80;;;9.10;99.90;;;;;;5046124;28;20665;-80
2022/11/06 06:35:55;;;;;;;2.70;1.90;;;9.00;99.90;;;;;;5032434;28;20612;-81
2022/11/06 06:38:29;;;;;;;4.00;1.87;;;9.10;99.90;;;;;;5029963;28;20708;-82
2022/11/06 06:41:00;;;;;;;3.63;1.80;;;9.10;99.90;;;;;;5029082;28;20203;-81
2022/11/06 06:43:29;;;;;;;8.83;2.17;;;9.10;99.90;;;;;;5037136;28;20202;-81
2022/11/06 06:45:58;;;;;;;5.67;2.07;;;9.10;99.90;;;;;;5038199;28;20541;-81
2022/11/06 06:48:28;;;;;;;5.57;2.10;;;9.10;99.90;;;;;;5036426;28;20224;-81
2022/11/06 06:50:59;;;;;;;3.90;1.90;;;9.10;99.90;;;;;;5052572;28;20199;-81
2022/11/06 06:53:27;;;;;;;4.30;2.00;;;9.10;99.90;;;;;;5036585;28;20225;-81
2022/11/06 06:55:59;;;;;;;4.83;2.10;;;9.10;99.90;;;;;;5032961;28;20211;-81
2022/11/06 06:58:27;;;;;;;3.17;1.70;;;9.10;99.90;;;;;;5035478;28;20211;-81
2022/11/06 07:00:59;;;;;;;3.03;1.90;;;9.10;99.90;;;;;;5031939;28;20778;-81
2022/11/06 07:03:30;;;;;;;5.37;2.23;;;9.20;99.90;;;;;;5037824;28;20195;-82
2022/11/06 07:05:58;;;;;;;6.37;2.40;;;9.20;99.90;;;;;;5037654;28;20198;-82
2022/11/06 07:08:26;;;;;;;5.30;2.50;;;9.20;99.90;;;;;;5034106;28;20551;-84
2022/11/06 07:10:57;;;;;;;3.40;1.60;;;9.20;99.90;;;;;;5036204;28;20691;-82
2022/11/06 07:13:25;;;;;;;4.03;1.67;;;9.20;99.90;;;;;;5037860;28;20187;-82
2022/11/06 07:15:53;;;;;;;4.43;1.77;;;9.30;99.90;;;;;;5034946;28;20214;-84
2022/11/06 07:18:22;;;;;;;3.73;1.60;;;9.30;99.90;;;;;;5026949;28;20199;-82
2022/11/06 07:20:49;;;;;;;4.43;2.13;;;9.30;99.90;;;;;;5031539;28;20208;-81
2022/11/06 07:23:17;;;;;;;4.93;2.00;;;9.30;99.90;;;;;;5029648;28;20248;-79
2022/11/06 07:25:44;;;;;;;6.97;2.27;;;9.40;99.90;;;;;;5027471;28;20195;-80
2022/11/06 07:28:12;;;;;;;5.97;2.03;;;10.10;99.90;;;;;;5029594;28;20215;-81
2022/11/06 07:30:41;;;;;;;1.90;1.43;;;10.30;99.90;;;;;;5031585;28;20277;-84
2022/11/06 07:33:09;;;;;;;1.97;1.63;;;9.90;99.90;;;;;;5034563;28;20209;-86
2022/11/06 07:35:38;;;;;;;3.27;1.90;;;9.60;99.90;;;;;;5041199;28;20194;-84
2022/11/06 07:38:06;;;;;;;2.03;1.27;;;9.50;99.90;;;;;;5035367;28;20210;-84
2022/11/06 07:40:34;;;;;;;4.73;1.77;;;9.50;99.90;;;;;;5037360;28;20222;-85
2022/11/06 07:43:06;;;;;;;3.43;1.67;;;9.60;99.90;;;;;;5039072;28;20202;-84
2022/11/06 07:45:36;;;;;;;3.23;1.90;;;9.60;99.90;;;;;;5042572;28;20203;-87
2022/11/06 07:48:05;;;;;;;3.40;1.60;;;9.60;99.90;;;;;;5042731;28;20199;-86
2022/11/06 07:50:33;;;;;;;4.43;1.93;;;9.60;99.90;;;;;;5042679;28;20222;-85
2022/11/06 07:53:04;;;;;;;2.97;1.67;;;9.60;99.90;;;;;;5042647;28;20203;-84
2022/11/06 07:55:32;;;;;;;3.37;2.07;;;9.70;99.90;;;;;;5041842;28;20222;-85
2022/11/06 07:57:59;;;;;;;3.93;2.20;;;9.70;99.90;;;;;;5042153;28;20208;-85
2022/11/06 08:00:27;;;;;;;5.80;2.00;;;9.80;99.90;;;;;;5041996;28;20233;-84
2022/11/06 08:02:55;;;;;;;2.93;1.73;;;9.80;99.90;;;;;;5042172;28;20671;-84
2022/11/06 08:05:23;;;;;;;4.03;1.80;;;9.80;99.90;;;;;;5042607;28;20210;-84
2022/11/06 08:07:59;;;;;;;4.80;1.87;;;9.80;99.90;;;;;;5042532;28;20202;-85
2022/11/06 08:10:29;;;;;;;3.43;1.80;;;9.90;99.90;;;;;;5042343;28;20219;-84
2022/11/06 08:12:59;;;;;;;4.33;1.70;;;9.90;99.90;;;;;;5042174;28;20206;-85
2022/11/06 08:15:27;;;;;;;3.50;1.70;;;10.00;99.90;;;;;;5041487;28;20687;-84
2022/11/06 08:17:55;;;;;;;4.00;1.60;;;9.90;99.90;;;;;;5042119;28;20212;-84
2022/11/06 08:20:23;;;;;;;2.80;1.90;;;10.00;99.90;;;;;;5041816;28;20230;-86
2022/11/06 08:22:51;;;;;;;3.23;1.60;;;10.00;99.90;;;;;;5041406;28;20210;-84
2022/11/06 08:25:19;;;;;;;4.97;1.60;;;10.10;99.90;;;;;;5042456;28;20195;-85
2022/11/06 08:27:48;;;;;;;5.13;1.50;;;10.10;99.90;;;;;;5042270;28;20210;-85
2022/11/06 08:30:16;;;;;;;3.40;1.50;;;10.20;99.90;;;;;;5042228;28;20221;-84
2022/11/06 08:32:44;;;;;;;4.90;1.83;;;10.20;99.90;;;;;;5041967;28;20202;-85
2022/11/06 08:35:13;;;;;;;3.13;1.83;;;10.20;99.90;;;;;;5030970;28;20199;-84
2022/11/06 08:37:46;;;;;;;6.17;1.90;;;10.40;99.90;;;;;;5028111;28;20195;-85
2022/11/06 08:40:13;;;;;;;5.97;1.80;;;10.40;99.90;;;;;;5025203;28;20214;-85
2022/11/06 08:42:41;;;;;;;3.73;1.70;;;10.40;99.90;;;;;;5036334;28;20199;-85
2022/11/06 08:45:11;;;;;;;4.13;1.77;;;10.40;99.90;;;;;;5035530;28;20203;-84
2022/11/06 08:47:38;;;;;;;4.30;1.60;;;10.40;99.90;;;;;;5036742;28;20199;-85
2022/11/06 08:50:08;;;;;;;3.73;1.80;;;10.50;99.90;;;;;;5040942;28;20219;-85
2022/11/06 08:52:36;;;;;;;3.97;1.57;;;10.50;99.90;;;;;;5045576;28;20206;-85
2022/11/06 08:55:04;;;;;;;4.13;1.70;;;10.60;99.90;;;;;;5039348;28;20196;-84
2022/11/06 08:57:32;;;;;;;2.57;1.50;;;10.60;99.90;;;;;;5038011;28;20210;-85
2022/11/06 08:59:59;;;;;;;4.90;1.70;;;10.70;99.90;;;;;;5037123;28;20215;-85
2022/11/06 09:02:28;;;;;;;5.00;2.03;;;10.80;99.90;;;;;;5040826;28;20206;-85
2022/11/06 09:04:56;;;;;;;3.13;1.63;;;10.80;99.90;;;;;;5035377;28;20199;-86
2022/11/06 09:07:24;;;;;;;6.63;2.03;;;10.90;99.90;;;;;;5038757;28;20209;-85
2022/11/06 09:09:51;;;;;;;4.17;2.00;;;10.90;99.90;;;;;;5044017;28;20222;-85
2022/11/06 09:12:19;;;;;;;3.20;2.07;;;11.00;99.90;;;;;;5037081;28;20207;-89
2022/11/06 09:14:46;;;;;;;3.47;1.60;;;11.10;99.90;;;;;;5041190;28;20665;-84
2022/11/06 09:17:14;;;;;;;3.50;1.63;;;11.10;99.90;;;;;;5038591;28;20215;-83
2022/11/06 09:19:43;;;;;;;2.87;1.70;;;11.20;99.90;;;;;;5043262;28;20230;-85
2022/11/06 09:22:10;;;;;;;4.03;1.70;;;11.30;99.90;;;;;;5048481;28;20199;-83
2022/11/06 09:24:38;;;;;;;3.30;2.23;;;11.30;99.90;;;;;;5041060;28;20222;-86
2022/11/06 09:27:05;;;;;;;4.53;1.77;;;11.30;99.90;;;;;;5043761;28;20214;-83
2022/11/06 09:29:33;;;;;;;4.67;1.87;;;11.30;99.90;;;;;;5046946;28;20218;-82
2022/11/06 09:32:01;;;;;;;4.50;2.07;;;11.30;99.90;;;;;;5045301;28;20206;-84
2022/11/06 09:34:29;;;;;;;3.37;1.60;;;11.60;99.90;;;;;;5060467;28;20203;-81
2022/11/06 09:36:58;;;;;;;2.83;1.77;;;11.30;99.90;;;;;;5038849;28;20279;-80
2022/11/06 09:39:28;;;;;;;3.10;1.40;;;11.30;99.90;;;;;;5032716;28;20222;-81
2022/11/06 09:42:01;;;;;;;3.73;1.40;;;11.30;99.90;;;;;;5034392;28;20206;-82
2022/11/06 09:44:45;;;;;;;4.43;1.90;;;11.30;99.90;;;;;;5054426;28;20202;-80
2022/11/06 09:47:16;;;;;;;3.57;1.57;;;11.30;99.90;;;;;;5049492;28;20211;-83
2022/11/06 09:49:51;;;;;;;2.40;1.70;;;11.30;99.90;;;;;;5035749;28;20219;-81
2022/11/06 09:52:30;;;;;;;3.17;1.73;;;11.30;99.90;;;;;;5030725;28;20198;-81
2022/11/06 09:55:02;;;;;;;7.03;2.40;;;11.40;99.90;;;;;;5052522;28;20210;-81
2022/11/06 09:57:36;;;;;;;5.57;2.57;;;11.40;99.90;;;;;;5033509;28;20195;-81
2022/11/06 10:00:07;;;;;;;3.90;2.13;;;11.40;99.90;;;;;;5048819;28;20238;-85
2022/11/06 10:02:47;;;;;;;4.23;2.00;;;11.50;99.90;;;;;;5032736;28;20210;-84
2022/11/06 10:05:21;;;;;;;3.90;1.90;;;11.50;99.90;;;;;;5035941;28;20588;-81
2022/11/06 10:07:53;;;;;;;6.40;1.87;;;11.50;99.90;;;;;;5031993;28;20223;-82
2022/11/06 10:10:28;;;;;;;4.73;1.90;;;11.60;99.90;;;;;;5035873;28;20223;-83
2022/11/06 10:13:37;;;;;;;5.73;1.77;;;11.70;99.90;;;;;;5036862;28;20202;-81
2022/11/06 10:16:12;;;;;;;5.33;1.80;;;11.70;99.90;;;;;;4954709;28;20209;-81
2022/11/06 10:18:52;;;;;;;6.70;2.73;;;11.60;99.90;;;;;;4960219;28;20236;-82
2022/11/06 10:21:24;;;;;;;6.53;2.20;;;12.20;99.90;;;;;;5010564;28;20237;-82
2022/11/06 10:23:58;;;;;;;4.33;1.97;;;13.00;99.90;;;;;;5057943;28;20199;-83
2022/11/06 10:26:35;;;;;;;3.37;1.70;;;12.80;99.90;;;;;;5036033;28;20207;-84
2022/11/06 10:29:22;;;;;;;4.73;1.80;;;12.10;99.90;;;;;;5030409;28;20228;-83
2022/11/06 10:32:03;;;;;;;3.10;1.85;;;11.90;99.90;;;;;;5025347;28;20203;-84
2022/11/06 10:34:37;;;;;;;3.57;1.60;;;11.90;99.90;;;;;;5044401;28;20207;-85
2022/11/06 10:37:12;;;;;;;3.30;1.93;;;11.80;99.90;;;;;;5053113;28;20206;-83
2022/11/06 10:39:43;;;;;;;4.83;1.87;;;11.80;99.90;;;;;;5036158;28;20226;-88
2022/11/06 10:42:15;;;;;;;6.13;1.60;;;11.90;99.90;;;;;;5046732;28;20224;-83
2022/11/06 10:44:49;;;;;;;6.40;1.80;;;12.00;99.90;;;;;;5037134;28;20199;-84
2022/11/06 10:47:19;;;;;;;5.17;1.30;;;11.90;99.90;;;;;;5038599;28;20214;-84
2022/11/06 10:49:51;;;;;;;2.57;1.50;;;12.00;99.90;;;;;;5035438;28;20227;-82
2022/11/06 10:52:41;;;;;;;3.33;1.60;;;12.20;99.90;;;;;;5036575;28;20783;-83
2022/11/06 10:55:38;;;;;;;4.13;1.63;;;12.30;99.90;;;;;;5032862;28;20199;-82
2022/11/06 10:58:07;;;;;;;2.33;1.50;;;12.50;99.90;;;;;;5030611;28;20191;-83
2022/11/06 11:00:39;;;;;;;2.73;1.33;;;12.70;99.90;;;;;;5035505;28;20214;-84
2022/11/06 11:03:16;;;;;;;2.20;1.43;;;12.80;99.90;;;;;;5031952;28;20199;-84
2022/11/06 11:05:44;;;;;;;3.33;1.57;;;12.80;99.90;;;;;;5030220;28;20186;-84
2022/11/06 11:08:38;;;;;;;5.38;1.55;;;12.70;99.90;;;;;;5034590;28;20210;-84
2022/11/06 11:11:21;;;;;;;3.38;1.70;;;12.60;99.90;;;;;;5043945;28;20210;-84
2022/11/06 11:14:11;;;;;;;3.13;2.42;;;12.60;99.90;;;;;;5033729;28;20195;-84
2022/11/06 11:16:45;;;;;;;4.03;1.50;;;12.70;99.90;;;;;;5025236;28;20200;-84
2022/11/06 11:19:24;;;;;;;3.22;1.58;;;13.40;99.90;;;;;;5035177;28;20234;-84
2022/11/06 11:21:54;;;;;;;4.50;1.42;;;13.40;99.90;;;;;;5032882;28;20229;-84
2022/11/06 11:24:21;;;;;;;4.88;1.75;;;13.50;99.90;;;;;;5034770;28;20210;-83
2022/11/06 11:26:53;;;;;;;2.83;1.40;;;13.60;99.90;;;;;;5034241;28;20555;-81
2022/11/06 11:29:27;;;;;;;2.88;1.42;;;13.60;99.90;;;;;;5033620;28;20227;-82
2022/11/06 11:31:57;;;;;;;6.07;1.60;;;13.60;99.90;;;;;;5034138;28;20202;-82
2022/11/06 11:34:28;;;;;;;4.72;1.77;;;13.30;99.90;;;;;;5036493;28;20218;-82
2022/11/06 11:36:58;;;;;;;3.53;1.50;;;13.30;99.90;;;;;;5028301;28;20206;-82
2022/11/06 11:39:29;;;;;;;2.95;1.40;;;13.10;99.90;;;;;;5032058;28;20772;-82
2022/11/06 11:42:28;;;;;;;6.03;1.80;;;13.00;99.90;;;;;;5029949;28;20588;-82
2022/11/06 11:45:16;;;;;;;4.75;2.00;;;12.80;99.90;;;;;;5032381;28;20664;-82
2022/11/06 11:47:46;;;;;;;5.55;1.45;;;12.70;99.90;;;;;;5033311;28;20198;-82
2022/11/06 11:50:29;;;;;;;3.57;1.80;;;12.70;99.90;;;;;;5025094;28;20222;-83
2022/11/06 11:52:59;;;;;;;3.95;1.63;;;12.80;99.90;;;;;;5033189;28;20574;-82
2022/11/06 11:55:29;;;;;;;4.28;1.65;;;12.60;99.90;;;;;;5030680;28;20200;-82
2022/11/06 11:58:01;;;;;;;5.43;2.30;;;12.60;99.90;;;;;;5029790;28;20661;-82
2022/11/06 12:00:30;;;;;;;3.50;1.60;;;12.60;99.90;;;;;;5046712;28;20233;-82
2022/11/06 12:03:01;;;;;;;4.20;2.13;;;12.70;99.90;;;;;;5030744;28;20556;-82
2022/11/06 12:05:33;;;;;;;4.25;2.13;;;12.60;99.90;;;;;;5035558;28;20202;-82
2022/11/06 12:08:01;;;;;;;3.58;1.73;;;12.60;99.90;;;;;;5035264;28;20199;-82
2022/11/06 12:10:32;;;;;;;2.67;1.98;;;12.50;99.90;;;;;;5027780;28;20590;-82
2022/11/06 12:13:04;;;;;;;2.93;1.90;;;12.60;99.90;;;;;;5031884;28;20202;-82
2022/11/06 12:15:44;;;;;;;5.00;2.33;;;12.70;99.90;;;;;;5030249;28;20199;-81
2022/11/06 12:18:17;;;;;;;2.08;1.88;;;12.80;99.90;;;;;;5048117;28;20205;-82
2022/11/06 12:20:58;;;;;;;4.23;1.83;;;12.70;99.90;;;;;;5033905;28;20552;-83
2022/11/06 12:23:32;;;;;;;2.20;1.77;;;12.70;99.90;;;;;;5032352;28;20203;-81
2022/11/06 12:26:06;;;;;;;4.80;2.20;;;12.70;99.90;;;;;;5031087;28;20210;-80
2022/11/06 12:28:37;;;;;;;3.60;1.93;;;12.80;99.90;;;;;;5045436;28;20229;-82
2022/11/06 12:31:17;;;;;;;2.90;1.83;;;13.20;99.90;;;;;;5023370;28;20676;-82
2022/11/06 12:33:48;;;;;;;2.70;1.92;;;13.30;99.90;;;;;;5025347;28;20214;-82
2022/11/06 12:36:21;;;;;;;2.03;1.80;;;13.30;99.90;;;;;;5026308;28;20210;-82
2022/11/06 12:38:54;;;;;;;2.58;1.70;;;13.10;99.90;;;;;;5031073;28;20222;-83
2022/11/06 12:41:25;;;;;;;3.42;1.90;;;13.00;99.90;;;;;;5033286;28;20230;-82
2022/11/06 12:43:55;;;;;;;5.68;2.10;;;12.80;99.90;;;;;;5034428;28;20211;-82
2022/11/06 12:46:37;;;;;;;3.47;1.95;;;12.70;99.90;;;;;;5039352;28;20206;-83
2022/11/06 12:49:50;;;;;;;4.60;1.92;;;12.60;99.90;;;;;;5035634;28;20585;-84
2022/11/06 12:52:40;;;;;;;3.87;2.10;;;12.50;99.90;;;;;;4988611;28;20198;-82
2022/11/06 12:55:18;;;;;;;2.27;2.00;;;12.40;99.90;;;;;;5043862;28;20569;-84
2022/11/06 12:57:56;;;;;;;3.97;1.97;;;12.30;99.90;;;;;;5033258;28;20225;-82
2022/11/06 13:00:32;;;;;;;3.60;2.13;;;12.30;99.90;;;;;;5031613;28;20222;-83
2022/11/06 13:03:28;;;;;;;4.57;1.77;;;12.30;99.90;;;;;;5037091;28;20344;-82
2022/11/06 13:06:00;;;;;;;4.97;2.07;;;12.30;99.90;;;;;;5023103;28;20209;-83
2022/11/06 13:08:38;;;;;;;4.37;1.83;;;12.30;99.90;;;;;;5028908;28;20203;-83
2022/11/06 13:11:28;;;;;;;4.57;2.47;;;12.30;99.90;;;;;;5033248;28;20197;-82
2022/11/06 13:14:06;;;;;;;3.58;1.60;;;12.30;99.90;;;;;;5037478;28;20242;-82
2022/11/06 13:16:41;;;;;;;1.83;1.60;;;12.30;99.90;;;;;;5034528;28;20202;-85
2022/11/06 13:19:19;;;;;;;5.10;2.53;;;12.30;99.90;;;;;;5032449;28;20233;-82
2022/11/06 13:22:15;;;;;;;4.27;2.53;;;12.30;99.90;;;;;;5033164;28;20221;-82
2022/11/06 13:24:50;;;;;;;3.57;1.87;;;12.30;99.90;;;;;;4982714;28;20197;-83
2022/11/06 13:27:25;;;;;;;2.37;1.60;;;12.30;99.90;;;;;;5032376;28;20204;-82
2022/11/06 13:30:02;;;;;;;4.40;1.88;;;12.30;99.90;;;;;;5034301;28;20222;-82